sensor_id;sensor_type;location;lat;lon;timestamp;P1;durP1;ratioP1;P2;durP2;ratioP2
19535;SDS011;9913;51.168;4.124;2023-04-25T00:01:04;17.80;;;5.80;;
19535;SDS011;9913;51.168;4.124;2023-04-25T00:03:33;13.77;;;5.37;;
19535;SDS011;9913;51.168;4.124;2023-04-25T00:06:03;14.60;;;5.13;;
19535;SDS011;9913;51.168;4.124;2023-04-25T00:08:33;16.27;;;5.70;;
19535;SDS011;9913;51.168;4.124;2023-04-25T00:11:01;16.33;;;6.13;;
19535;SDS011;9913;51.168;4.124;2023-04-25T00:13:29;16.93;;;6.03;;
19535;SDS011;9913;51.168;4.124;2023-04-25T00:15:58;12.27;;;5.30;;
19535;SDS011;9913;51.168;4.124;2023-04-25T00:18:26;16.20;;;5.67;;
19535;SDS011;9913;51.168;4.124;2023-04-25T00:20:55;16.47;;;5.87;;
19535;SDS011;9913;51.168;4.124;2023-04-25T00:23:25;13.43;;;5.87;;
19535;SDS011;9913;51.168;4.124;2023-04-25T00:25:53;14.20;;;5.40;;
19535;SDS011;9913;51.168;4.124;2023-04-25T00:28:22;16.90;;;5.37;;
19535;SDS011;9913;51.168;4.124;2023-04-25T00:30:50;18.97;;;5.97;;
19535;SDS011;9913;51.168;4.124;2023-04-25T00:33:18;17.27;;;6.33;;
19535;SDS011;9913;51.168;4.124;2023-04-25T00:35:46;13.10;;;5.03;;
19535;SDS011;9913;51.168;4.124;2023-04-25T00:38:15;12.43;;;5.70;;
19535;SDS011;9913;51.168;4.124;2023-04-25T00:40:44;11.87;;;5.33;;
19535;SDS011;9913;51.168;4.124;2023-04-25T00:43:13;17.17;;;5.70;;
19535;SDS011;9913;51.168;4.124;2023-04-25T00:45:41;13.43;;;5.43;;
19535;SDS011;9913;51.168;4.124;2023-04-25T00:48:11;15.47;;;5.53;;
19535;SDS011;9913;51.168;4.124;2023-04-25T00:50:41;19.03;;;5.23;;
19535;SDS011;9913;51.168;4.124;2023-04-25T00:53:15;16.67;;;6.47;;
19535;SDS011;9913;51.168;4.124;2023-04-25T00:55:44;12.07;;;5.23;;
19535;SDS011;9913;51.168;4.124;2023-04-25T00:58:13;11.30;;;4.77;;
19535;SDS011;9913;51.168;4.124;2023-04-25T01:00:41;11.53;;;5.57;;
19535;SDS011;9913;51.168;4.124;2023-04-25T01:03:10;16.00;;;5.87;;
19535;SDS011;9913;51.168;4.124;2023-04-25T01:05:39;14.23;;;5.23;;
19535;SDS011;9913;51.168;4.124;2023-04-25T01:08:09;16.97;;;6.20;;
19535;SDS011;9913;51.168;4.124;2023-04-25T01:10:37;12.63;;;4.97;;
19535;SDS011;9913;51.168;4.124;2023-04-25T01:13:07;13.60;;;5.03;;
19535;SDS011;9913;51.168;4.124;2023-04-25T01:15:36;14.67;;;5.07;;
19535;SDS011;9913;51.168;4.124;2023-04-25T01:18:05;15.00;;;5.00;;
19535;SDS011;9913;51.168;4.124;2023-04-25T01:20:34;11.67;;;5.60;;
19535;SDS011;9913;51.168;4.124;2023-04-25T01:23:04;10.77;;;4.10;;
19535;SDS011;9913;51.168;4.124;2023-04-25T01:25:33;13.57;;;5.17;;
19535;SDS011;9913;51.168;4.124;2023-04-25T01:28:02;17.37;;;5.13;;
19535;SDS011;9913;51.168;4.124;2023-04-25T01:30:31;11.83;;;5.00;;
19535;SDS011;9913;51.168;4.124;2023-04-25T01:32:59;14.70;;;6.23;;
19535;SDS011;9913;51.168;4.124;2023-04-25T01:35:29;11.67;;;4.83;;
19535;SDS011;9913;51.168;4.124;2023-04-25T01:37:58;16.63;;;5.23;;
19535;SDS011;9913;51.168;4.124;2023-04-25T01:40:28;15.90;;;6.00;;
19535;SDS011;9913;51.168;4.124;2023-04-25T01:42:57;15.87;;;6.47;;
19535;SDS011;9913;51.168;4.124;2023-04-25T01:45:25;14.77;;;5.20;;
19535;SDS011;9913;51.168;4.124;2023-04-25T01:47:53;15.67;;;5.33;;
19535;SDS011;9913;51.168;4.124;2023-04-25T01:50:26;14.13;;;5.20;;
19535;SDS011;9913;51.168;4.124;2023-04-25T01:52:54;11.50;;;4.87;;
19535;SDS011;9913;51.168;4.124;2023-04-25T01:55:23;15.50;;;5.47;;
19535;SDS011;9913;51.168;4.124;2023-04-25T01:57:59;18.53;;;4.67;;
19535;SDS011;9913;51.168;4.124;2023-04-25T02:00:47;16.27;;;5.83;;
19535;SDS011;9913;51.168;4.124;2023-04-25T02:03:15;15.57;;;5.10;;
19535;SDS011;9913;51.168;4.124;2023-04-25T02:05:44;18.23;;;6.10;;
19535;SDS011;9913;51.168;4.124;2023-04-25T02:08:13;20.30;;;6.13;;
19535;SDS011;9913;51.168;4.124;2023-04-25T02:10:41;15.93;;;5.40;;
19535;SDS011;9913;51.168;4.124;2023-04-25T02:13:16;12.07;;;4.77;;
19535;SDS011;9913;51.168;4.124;2023-04-25T02:16:05;14.13;;;4.90;;
19535;SDS011;9913;51.168;4.124;2023-04-25T02:18:37;16.43;;;5.77;;
19535;SDS011;9913;51.168;4.124;2023-04-25T02:21:06;16.43;;;5.40;;
19535;SDS011;9913;51.168;4.124;2023-04-25T02:23:35;15.97;;;5.63;;
19535;SDS011;9913;51.168;4.124;2023-04-25T02:26:03;16.73;;;5.60;;
19535;SDS011;9913;51.168;4.124;2023-04-25T02:28:33;14.17;;;5.63;;
19535;SDS011;9913;51.168;4.124;2023-04-25T02:31:04;13.50;;;5.73;;
19535;SDS011;9913;51.168;4.124;2023-04-25T02:33:33;13.17;;;5.73;;
19535;SDS011;9913;51.168;4.124;2023-04-25T02:36:04;16.07;;;6.33;;
19535;SDS011;9913;51.168;4.124;2023-04-25T02:38:33;20.40;;;6.47;;
19535;SDS011;9913;51.168;4.124;2023-04-25T02:41:03;17.50;;;5.67;;
19535;SDS011;9913;51.168;4.124;2023-04-25T02:43:31;17.70;;;6.43;;
19535;SDS011;9913;51.168;4.124;2023-04-25T02:46:01;18.27;;;4.93;;
19535;SDS011;9913;51.168;4.124;2023-04-25T02:48:29;15.90;;;5.77;;
19535;SDS011;9913;51.168;4.124;2023-04-25T02:50:57;17.73;;;6.23;;
19535;SDS011;9913;51.168;4.124;2023-04-25T02:53:26;15.97;;;4.73;;
19535;SDS011;9913;51.168;4.124;2023-04-25T02:55:54;12.97;;;4.80;;
19535;SDS011;9913;51.168;4.124;2023-04-25T02:58:25;19.37;;;5.47;;
19535;SDS011;9913;51.168;4.124;2023-04-25T03:00:53;14.53;;;5.53;;
19535;SDS011;9913;51.168;4.124;2023-04-25T03:03:23;21.50;;;6.50;;
19535;SDS011;9913;51.168;4.124;2023-04-25T03:05:52;19.17;;;6.07;;
19535;SDS011;9913;51.168;4.124;2023-04-25T03:08:24;17.37;;;5.23;;
19535;SDS011;9913;51.168;4.124;2023-04-25T03:10:56;15.67;;;5.30;;
19535;SDS011;9913;51.168;4.124;2023-04-25T03:13:25;15.67;;;5.93;;
19535;SDS011;9913;51.168;4.124;2023-04-25T03:15:54;17.37;;;5.80;;
19535;SDS011;9913;51.168;4.124;2023-04-25T03:18:23;14.40;;;5.00;;
19535;SDS011;9913;51.168;4.124;2023-04-25T03:20:53;16.20;;;6.03;;
19535;SDS011;9913;51.168;4.124;2023-04-25T03:23:22;13.27;;;4.50;;
19535;SDS011;9913;51.168;4.124;2023-04-25T03:25:51;21.13;;;5.30;;
19535;SDS011;9913;51.168;4.124;2023-04-25T03:28:19;18.30;;;6.20;;
19535;SDS011;9913;51.168;4.124;2023-04-25T03:30:47;17.37;;;4.87;;
19535;SDS011;9913;51.168;4.124;2023-04-25T03:33:16;11.33;;;4.50;;
19535;SDS011;9913;51.168;4.124;2023-04-25T03:35:45;11.33;;;4.53;;
19535;SDS011;9913;51.168;4.124;2023-04-25T03:38:14;14.57;;;4.53;;
19535;SDS011;9913;51.168;4.124;2023-04-25T03:40:42;13.40;;;4.20;;
19535;SDS011;9913;51.168;4.124;2023-04-25T03:43:20;13.20;;;4.40;;
19535;SDS011;9913;51.168;4.124;2023-04-25T03:45:54;13.47;;;4.30;;
19535;SDS011;9913;51.168;4.124;2023-04-25T03:48:23;13.30;;;4.43;;
19535;SDS011;9913;51.168;4.124;2023-04-25T03:50:54;9.53;;;3.70;;
19535;SDS011;9913;51.168;4.124;2023-04-25T03:53:23;9.53;;;4.17;;
19535;SDS011;9913;51.168;4.124;2023-04-25T03:56:10;9.23;;;3.60;;
19535;SDS011;9913;51.168;4.124;2023-04-25T03:58:39;12.10;;;4.27;;
19535;SDS011;9913;51.168;4.124;2023-04-25T04:01:07;11.40;;;3.93;;
19535;SDS011;9913;51.168;4.124;2023-04-25T04:03:38;10.53;;;4.80;;
19535;SDS011;9913;51.168;4.124;2023-04-25T04:06:08;10.33;;;4.50;;
19535;SDS011;9913;51.168;4.124;2023-04-25T04:08:42;11.33;;;4.07;;
19535;SDS011;9913;51.168;4.124;2023-04-25T04:11:11;7.53;;;4.00;;
19535;SDS011;9913;51.168;4.124;2023-04-25T04:13:40;8.77;;;4.07;;
19535;SDS011;9913;51.168;4.124;2023-04-25T04:16:08;13.40;;;4.17;;
19535;SDS011;9913;51.168;4.124;2023-04-25T04:18:38;12.00;;;4.10;;
19535;SDS011;9913;51.168;4.124;2023-04-25T04:21:08;16.03;;;4.40;;
19535;SDS011;9913;51.168;4.124;2023-04-25T04:23:39;10.77;;;3.97;;
19535;SDS011;9913;51.168;4.124;2023-04-25T04:26:09;8.57;;;3.60;;
19535;SDS011;9913;51.168;4.124;2023-04-25T04:28:55;8.83;;;3.70;;
19535;SDS011;9913;51.168;4.124;2023-04-25T04:31:40;9.10;;;3.53;;
19535;SDS011;9913;51.168;4.124;2023-04-25T04:34:10;12.53;;;3.67;;
19535;SDS011;9913;51.168;4.124;2023-04-25T04:36:41;11.00;;;4.50;;
19535;SDS011;9913;51.168;4.124;2023-04-25T04:39:12;8.37;;;3.73;;
19535;SDS011;9913;51.168;4.124;2023-04-25T04:41:54;8.70;;;3.80;;
19535;SDS011;9913;51.168;4.124;2023-04-25T04:44:33;10.43;;;4.37;;
19535;SDS011;9913;51.168;4.124;2023-04-25T04:47:22;10.43;;;4.17;;
19535;SDS011;9913;51.168;4.124;2023-04-25T04:50:17;15.00;;;4.33;;
19535;SDS011;9913;51.168;4.124;2023-04-25T04:53:16;13.13;;;4.60;;
19535;SDS011;9913;51.168;4.124;2023-04-25T04:56:02;10.43;;;4.20;;
19535;SDS011;9913;51.168;4.124;2023-04-25T04:58:49;9.77;;;4.30;;
19535;SDS011;9913;51.168;4.124;2023-04-25T05:01:38;9.03;;;4.07;;
19535;SDS011;9913;51.168;4.124;2023-04-25T05:04:38;9.97;;;4.07;;
19535;SDS011;9913;51.168;4.124;2023-04-25T05:07:26;13.53;;;4.67;;
19535;SDS011;9913;51.168;4.124;2023-04-25T05:10:01;11.20;;;4.43;;
19535;SDS011;9913;51.168;4.124;2023-04-25T05:12:44;13.60;;;5.77;;
19535;SDS011;9913;51.168;4.124;2023-04-25T05:15:31;10.87;;;4.33;;
19535;SDS011;9913;51.168;4.124;2023-04-25T05:18:18;10.57;;;4.63;;
19535;SDS011;9913;51.168;4.124;2023-04-25T05:21:27;13.50;;;4.37;;
19535;SDS011;9913;51.168;4.124;2023-04-25T05:24:07;16.00;;;4.23;;
19535;SDS011;9913;51.168;4.124;2023-04-25T05:26:55;11.47;;;4.80;;
19535;SDS011;9913;51.168;4.124;2023-04-25T05:29:49;9.47;;;3.90;;
19535;SDS011;9913;51.168;4.124;2023-04-25T05:32:25;11.17;;;3.90;;
19535;SDS011;9913;51.168;4.124;2023-04-25T05:34:54;12.50;;;4.20;;
19535;SDS011;9913;51.168;4.124;2023-04-25T05:37:29;10.73;;;4.20;;
19535;SDS011;9913;51.168;4.124;2023-04-25T05:40:18;14.53;;;4.10;;
19535;SDS011;9913;51.168;4.124;2023-04-25T05:42:57;15.03;;;3.60;;
19535;SDS011;9913;51.168;4.124;2023-04-25T05:45:26;7.83;;;4.13;;
19535;SDS011;9913;51.168;4.124;2023-04-25T05:48:14;12.50;;;4.97;;
19535;SDS011;9913;51.168;4.124;2023-04-25T05:51:01;8.93;;;3.37;;
19535;SDS011;9913;51.168;4.124;2023-04-25T05:53:38;10.83;;;4.00;;
19535;SDS011;9913;51.168;4.124;2023-04-25T05:56:07;13.47;;;4.60;;
19535;SDS011;9913;51.168;4.124;2023-04-25T05:58:37;11.10;;;4.80;;
19535;SDS011;9913;51.168;4.124;2023-04-25T06:01:06;11.77;;;3.67;;
19535;SDS011;9913;51.168;4.124;2023-04-25T06:03:35;7.33;;;3.90;;
19535;SDS011;9913;51.168;4.124;2023-04-25T06:06:05;9.20;;;3.73;;
19535;SDS011;9913;51.168;4.124;2023-04-25T06:08:33;11.60;;;3.77;;
19535;SDS011;9913;51.168;4.124;2023-04-25T06:11:02;9.63;;;3.20;;
19535;SDS011;9913;51.168;4.124;2023-04-25T06:13:31;9.20;;;3.90;;
19535;SDS011;9913;51.168;4.124;2023-04-25T06:16:01;8.23;;;2.93;;
19535;SDS011;9913;51.168;4.124;2023-04-25T06:18:30;8.03;;;3.80;;
19535;SDS011;9913;51.168;4.124;2023-04-25T06:20:58;7.73;;;3.00;;
19535;SDS011;9913;51.168;4.124;2023-04-25T06:23:27;9.90;;;3.23;;
19535;SDS011;9913;51.168;4.124;2023-04-25T06:26:00;10.47;;;3.63;;
19535;SDS011;9913;51.168;4.124;2023-04-25T06:28:31;9.90;;;3.03;;
19535;SDS011;9913;51.168;4.124;2023-04-25T06:30:59;6.40;;;3.00;;
19535;SDS011;9913;51.168;4.124;2023-04-25T06:33:29;8.90;;;2.63;;
19535;SDS011;9913;51.168;4.124;2023-04-25T06:35:58;10.80;;;3.57;;
19535;SDS011;9913;51.168;4.124;2023-04-25T06:38:27;11.00;;;3.40;;
19535;SDS011;9913;51.168;4.124;2023-04-25T06:40:56;9.77;;;3.80;;
19535;SDS011;9913;51.168;4.124;2023-04-25T06:43:28;11.47;;;3.90;;
19535;SDS011;9913;51.168;4.124;2023-04-25T06:46:18;9.70;;;3.00;;
19535;SDS011;9913;51.168;4.124;2023-04-25T06:48:49;9.07;;;3.43;;
19535;SDS011;9913;51.168;4.124;2023-04-25T06:51:19;6.50;;;3.10;;
19535;SDS011;9913;51.168;4.124;2023-04-25T06:53:52;5.10;;;3.23;;
19535;SDS011;9913;51.168;4.124;2023-04-25T06:56:29;6.27;;;2.40;;
19535;SDS011;9913;51.168;4.124;2023-04-25T06:59:04;9.70;;;2.53;;
19535;SDS011;9913;51.168;4.124;2023-04-25T07:01:35;9.20;;;2.87;;
19535;SDS011;9913;51.168;4.124;2023-04-25T07:04:10;8.37;;;2.87;;
19535;SDS011;9913;51.168;4.124;2023-04-25T07:06:44;6.73;;;2.23;;
19535;SDS011;9913;51.168;4.124;2023-04-25T07:09:16;7.53;;;2.40;;
19535;SDS011;9913;51.168;4.124;2023-04-25T07:11:46;10.27;;;3.53;;
19535;SDS011;9913;51.168;4.124;2023-04-25T07:14:15;8.73;;;3.27;;
19535;SDS011;9913;51.168;4.124;2023-04-25T07:16:44;10.57;;;2.77;;
19535;SDS011;9913;51.168;4.124;2023-04-25T07:19:14;7.43;;;2.93;;
19535;SDS011;9913;51.168;4.124;2023-04-25T07:21:42;8.83;;;3.00;;
19535;SDS011;9913;51.168;4.124;2023-04-25T07:24:11;12.87;;;3.70;;
19535;SDS011;9913;51.168;4.124;2023-04-25T07:26:44;9.37;;;2.43;;
19535;SDS011;9913;51.168;4.124;2023-04-25T07:29:25;7.50;;;2.97;;
19535;SDS011;9913;51.168;4.124;2023-04-25T07:31:53;9.80;;;2.97;;
19535;SDS011;9913;51.168;4.124;2023-04-25T07:34:23;10.20;;;2.37;;
19535;SDS011;9913;51.168;4.124;2023-04-25T07:36:51;12.50;;;2.50;;
19535;SDS011;9913;51.168;4.124;2023-04-25T07:39:22;8.73;;;2.77;;
19535;SDS011;9913;51.168;4.124;2023-04-25T07:41:50;6.77;;;2.23;;
19535;SDS011;9913;51.168;4.124;2023-04-25T07:44:24;8.33;;;2.50;;
19535;SDS011;9913;51.168;4.124;2023-04-25T07:46:53;9.60;;;2.70;;
19535;SDS011;9913;51.168;4.124;2023-04-25T07:49:23;7.17;;;2.23;;
19535;SDS011;9913;51.168;4.124;2023-04-25T07:51:51;7.83;;;2.20;;
19535;SDS011;9913;51.168;4.124;2023-04-25T07:54:20;7.83;;;2.13;;
19535;SDS011;9913;51.168;4.124;2023-04-25T07:56:56;9.37;;;2.17;;
19535;SDS011;9913;51.168;4.124;2023-04-25T07:59:29;5.37;;;1.80;;
19535;SDS011;9913;51.168;4.124;2023-04-25T08:02:00;5.50;;;2.30;;
19535;SDS011;9913;51.168;4.124;2023-04-25T08:04:31;8.90;;;2.33;;
19535;SDS011;9913;51.168;4.124;2023-04-25T08:07:03;6.03;;;1.80;;
19535;SDS011;9913;51.168;4.124;2023-04-25T08:09:44;8.23;;;2.30;;
19535;SDS011;9913;51.168;4.124;2023-04-25T08:12:21;7.03;;;1.80;;
19535;SDS011;9913;51.168;4.124;2023-04-25T08:14:50;7.83;;;1.90;;
19535;SDS011;9913;51.168;4.124;2023-04-25T08:17:19;8.40;;;2.37;;
19535;SDS011;9913;51.168;4.124;2023-04-25T08:19:48;9.57;;;2.47;;
19535;SDS011;9913;51.168;4.124;2023-04-25T08:22:30;7.30;;;2.30;;
19535;SDS011;9913;51.168;4.124;2023-04-25T08:25:30;8.87;;;2.03;;
19535;SDS011;9913;51.168;4.124;2023-04-25T08:27:59;7.13;;;2.30;;
19535;SDS011;9913;51.168;4.124;2023-04-25T08:30:30;7.37;;;2.43;;
19535;SDS011;9913;51.168;4.124;2023-04-25T08:32:58;8.63;;;2.27;;
19535;SDS011;9913;51.168;4.124;2023-04-25T08:35:58;6.67;;;2.10;;
19535;SDS011;9913;51.168;4.124;2023-04-25T08:38:27;7.90;;;1.90;;
19535;SDS011;9913;51.168;4.124;2023-04-25T08:40:56;8.27;;;2.20;;
19535;SDS011;9913;51.168;4.124;2023-04-25T08:43:27;5.70;;;2.07;;
19535;SDS011;9913;51.168;4.124;2023-04-25T08:45:58;7.27;;;2.20;;
19535;SDS011;9913;51.168;4.124;2023-04-25T08:48:54;8.20;;;2.47;;
19535;SDS011;9913;51.168;4.124;2023-04-25T08:51:31;5.63;;;2.10;;
19535;SDS011;9913;51.168;4.124;2023-04-25T08:54:06;6.67;;;2.10;;
19535;SDS011;9913;51.168;4.124;2023-04-25T08:57:00;8.00;;;1.90;;
19535;SDS011;9913;51.168;4.124;2023-04-25T08:59:31;6.53;;;1.60;;
19535;SDS011;9913;51.168;4.124;2023-04-25T09:02:02;7.67;;;2.10;;
19535;SDS011;9913;51.168;4.124;2023-04-25T09:04:31;7.00;;;2.43;;
19535;SDS011;9913;51.168;4.124;2023-04-25T09:07:01;7.07;;;2.00;;
19535;SDS011;9913;51.168;4.124;2023-04-25T09:09:29;6.57;;;1.73;;
19535;SDS011;9913;51.168;4.124;2023-04-25T09:11:58;5.73;;;1.97;;
19535;SDS011;9913;51.168;4.124;2023-04-25T09:14:28;6.07;;;1.77;;
19535;SDS011;9913;51.168;4.124;2023-04-25T09:17:11;7.47;;;2.07;;
19535;SDS011;9913;51.168;4.124;2023-04-25T09:19:47;5.70;;;1.90;;
19535;SDS011;9913;51.168;4.124;2023-04-25T09:22:37;6.33;;;1.70;;
19535;SDS011;9913;51.168;4.124;2023-04-25T09:25:08;5.90;;;2.17;;
19535;SDS011;9913;51.168;4.124;2023-04-25T09:27:48;6.30;;;2.10;;
19535;SDS011;9913;51.168;4.124;2023-04-25T09:30:28;4.97;;;1.50;;
19535;SDS011;9913;51.168;4.124;2023-04-25T09:33:05;5.70;;;2.23;;
19535;SDS011;9913;51.168;4.124;2023-04-25T09:35:35;8.03;;;2.17;;
19535;SDS011;9913;51.168;4.124;2023-04-25T09:38:09;7.17;;;2.00;;
19535;SDS011;9913;51.168;4.124;2023-04-25T09:40:58;6.53;;;2.37;;
19535;SDS011;9913;51.168;4.124;2023-04-25T09:43:48;6.03;;;2.10;;
19535;SDS011;9913;51.168;4.124;2023-04-25T09:46:18;5.67;;;2.17;;
19535;SDS011;9913;51.168;4.124;2023-04-25T09:48:52;7.83;;;2.90;;
19535;SDS011;9913;51.168;4.124;2023-04-25T09:51:34;7.47;;;2.20;;
19535;SDS011;9913;51.168;4.124;2023-04-25T09:54:06;7.17;;;2.03;;
19535;SDS011;9913;51.168;4.124;2023-04-25T09:56:45;4.43;;;2.00;;
19535;SDS011;9913;51.168;4.124;2023-04-25T09:59:20;6.87;;;2.10;;
19535;SDS011;9913;51.168;4.124;2023-04-25T10:01:50;3.97;;;1.70;;
19535;SDS011;9913;51.168;4.124;2023-04-25T10:04:28;4.13;;;1.80;;
19535;SDS011;9913;51.168;4.124;2023-04-25T10:07:16;5.67;;;1.63;;
19535;SDS011;9913;51.168;4.124;2023-04-25T10:09:47;4.23;;;1.97;;
19535;SDS011;9913;51.168;4.124;2023-04-25T10:12:17;6.93;;;2.13;;
19535;SDS011;9913;51.168;4.124;2023-04-25T10:14:46;5.83;;;1.83;;
19535;SDS011;9913;51.168;4.124;2023-04-25T10:17:15;4.60;;;1.53;;
19535;SDS011;9913;51.168;4.124;2023-04-25T10:19:44;7.83;;;2.17;;
19535;SDS011;9913;51.168;4.124;2023-04-25T10:22:13;8.10;;;2.40;;
19535;SDS011;9913;51.168;4.124;2023-04-25T10:24:47;5.00;;;2.00;;
19535;SDS011;9913;51.168;4.124;2023-04-25T10:27:17;7.67;;;2.13;;
19535;SDS011;9913;51.168;4.124;2023-04-25T10:29:46;4.80;;;1.93;;
19535;SDS011;9913;51.168;4.124;2023-04-25T10:32:30;5.30;;;2.30;;
19535;SDS011;9913;51.168;4.124;2023-04-25T10:35:09;4.27;;;1.60;;
19535;SDS011;9913;51.168;4.124;2023-04-25T10:37:41;3.87;;;1.83;;
19535;SDS011;9913;51.168;4.124;2023-04-25T10:40:26;3.73;;;1.73;;
19535;SDS011;9913;51.168;4.124;2023-04-25T10:42:54;6.33;;;1.87;;
19535;SDS011;9913;51.168;4.124;2023-04-25T10:45:23;6.13;;;1.60;;
19535;SDS011;9913;51.168;4.124;2023-04-25T10:47:51;3.87;;;1.77;;
19535;SDS011;9913;51.168;4.124;2023-04-25T10:50:20;3.80;;;1.27;;
19535;SDS011;9913;51.168;4.124;2023-04-25T10:52:48;4.20;;;1.40;;
19535;SDS011;9913;51.168;4.124;2023-04-25T10:55:16;2.57;;;1.30;;
19535;SDS011;9913;51.168;4.124;2023-04-25T10:57:46;5.53;;;1.40;;
19535;SDS011;9913;51.168;4.124;2023-04-25T11:00:17;4.03;;;1.30;;
19535;SDS011;9913;51.168;4.124;2023-04-25T11:02:57;2.33;;;1.03;;
19535;SDS011;9913;51.168;4.124;2023-04-25T11:05:29;3.80;;;1.30;;
19535;SDS011;9913;51.168;4.124;2023-04-25T11:08:09;5.53;;;1.47;;
19535;SDS011;9913;51.168;4.124;2023-04-25T11:10:40;2.77;;;1.30;;
19535;SDS011;9913;51.168;4.124;2023-04-25T11:13:10;3.10;;;1.50;;
19535;SDS011;9913;51.168;4.124;2023-04-25T11:15:39;3.03;;;1.00;;
19535;SDS011;9913;51.168;4.124;2023-04-25T11:18:07;4.77;;;1.20;;
19535;SDS011;9913;51.168;4.124;2023-04-25T11:20:38;2.30;;;1.10;;
19535;SDS011;9913;51.168;4.124;2023-04-25T11:23:06;2.67;;;1.10;;
19535;SDS011;9913;51.168;4.124;2023-04-25T11:25:34;4.53;;;1.40;;
19535;SDS011;9913;51.168;4.124;2023-04-25T11:28:04;3.87;;;1.30;;
19535;SDS011;9913;51.168;4.124;2023-04-25T11:30:34;5.50;;;1.70;;
19535;SDS011;9913;51.168;4.124;2023-04-25T11:33:02;4.90;;;1.60;;
19535;SDS011;9913;51.168;4.124;2023-04-25T11:35:31;5.57;;;1.60;;
19535;SDS011;9913;51.168;4.124;2023-04-25T11:38:00;6.40;;;1.60;;
19535;SDS011;9913;51.168;4.124;2023-04-25T11:40:29;5.47;;;1.40;;
19535;SDS011;9913;51.168;4.124;2023-04-25T11:42:59;3.73;;;1.37;;
19535;SDS011;9913;51.168;4.124;2023-04-25T11:45:28;4.63;;;1.30;;
19535;SDS011;9913;51.168;4.124;2023-04-25T11:47:59;5.33;;;1.20;;
19535;SDS011;9913;51.168;4.124;2023-04-25T11:50:29;4.87;;;1.50;;
19535;SDS011;9913;51.168;4.124;2023-04-25T11:52:57;3.60;;;1.40;;
19535;SDS011;9913;51.168;4.124;2023-04-25T11:55:25;3.00;;;1.30;;
19535;SDS011;9913;51.168;4.124;2023-04-25T11:57:59;2.17;;;1.33;;
19535;SDS011;9913;51.168;4.124;2023-04-25T12:00:28;3.97;;;1.30;;
19535;SDS011;9913;51.168;4.124;2023-04-25T12:02:58;6.60;;;1.07;;
19535;SDS011;9913;51.168;4.124;2023-04-25T12:05:28;4.73;;;1.17;;
19535;SDS011;9913;51.168;4.124;2023-04-25T12:08:10;4.00;;;1.20;;
19535;SDS011;9913;51.168;4.124;2023-04-25T12:10:39;1.97;;;1.13;;
19535;SDS011;9913;51.168;4.124;2023-04-25T12:13:18;4.40;;;1.40;;
19535;SDS011;9913;51.168;4.124;2023-04-25T12:15:48;6.77;;;1.90;;
19535;SDS011;9913;51.168;4.124;2023-04-25T12:18:19;4.80;;;1.80;;
19535;SDS011;9913;51.168;4.124;2023-04-25T12:20:48;5.80;;;1.23;;
19535;SDS011;9913;51.168;4.124;2023-04-25T12:23:25;4.67;;;1.70;;
19535;SDS011;9913;51.168;4.124;2023-04-25T12:25:55;6.07;;;1.80;;
19535;SDS011;9913;51.168;4.124;2023-04-25T12:28:24;5.13;;;1.50;;
19535;SDS011;9913;51.168;4.124;2023-04-25T12:30:57;4.20;;;1.43;;
19535;SDS011;9913;51.168;4.124;2023-04-25T12:33:29;7.03;;;1.60;;
19535;SDS011;9913;51.168;4.124;2023-04-25T12:35:59;5.20;;;1.67;;
19535;SDS011;9913;51.168;4.124;2023-04-25T12:38:33;5.50;;;1.50;;
19535;SDS011;9913;51.168;4.124;2023-04-25T12:41:03;6.03;;;2.03;;
19535;SDS011;9913;51.168;4.124;2023-04-25T12:43:32;6.00;;;1.30;;
19535;SDS011;9913;51.168;4.124;2023-04-25T12:46:01;3.57;;;1.10;;
19535;SDS011;9913;51.168;4.124;2023-04-25T12:48:30;3.30;;;1.13;;
19535;SDS011;9913;51.168;4.124;2023-04-25T12:50:59;10.87;;;2.17;;
19535;SDS011;9913;51.168;4.124;2023-04-25T12:53:28;3.27;;;1.53;;
19535;SDS011;9913;51.168;4.124;2023-04-25T12:55:56;6.83;;;1.63;;
19535;SDS011;9913;51.168;4.124;2023-04-25T12:58:24;6.23;;;1.60;;
19535;SDS011;9913;51.168;4.124;2023-04-25T13:00:52;4.30;;;1.20;;
19535;SDS011;9913;51.168;4.124;2023-04-25T13:03:21;7.33;;;1.60;;
19535;SDS011;9913;51.168;4.124;2023-04-25T13:05:51;4.27;;;1.20;;
19535;SDS011;9913;51.168;4.124;2023-04-25T13:08:19;3.53;;;1.23;;
19535;SDS011;9913;51.168;4.124;2023-04-25T13:10:47;4.17;;;1.40;;
19535;SDS011;9913;51.168;4.124;2023-04-25T13:13:16;5.80;;;1.80;;
19535;SDS011;9913;51.168;4.124;2023-04-25T13:15:44;5.90;;;1.40;;
19535;SDS011;9913;51.168;4.124;2023-04-25T13:18:12;3.83;;;1.10;;
19535;SDS011;9913;51.168;4.124;2023-04-25T13:20:41;5.33;;;1.60;;
19535;SDS011;9913;51.168;4.124;2023-04-25T13:23:10;2.67;;;1.33;;
19535;SDS011;9913;51.168;4.124;2023-04-25T13:25:39;8.70;;;1.73;;
19535;SDS011;9913;51.168;4.124;2023-04-25T13:28:07;5.87;;;1.57;;
19535;SDS011;9913;51.168;4.124;2023-04-25T13:30:35;10.27;;;2.13;;
19535;SDS011;9913;51.168;4.124;2023-04-25T13:33:04;6.00;;;1.63;;
19535;SDS011;9913;51.168;4.124;2023-04-25T13:35:34;4.83;;;1.50;;
19535;SDS011;9913;51.168;4.124;2023-04-25T13:38:03;5.47;;;1.40;;
19535;SDS011;9913;51.168;4.124;2023-04-25T13:40:33;5.57;;;1.57;;
19535;SDS011;9913;51.168;4.124;2023-04-25T13:43:02;5.67;;;1.37;;
19535;SDS011;9913;51.168;4.124;2023-04-25T13:45:30;6.83;;;1.53;;
19535;SDS011;9913;51.168;4.124;2023-04-25T13:47:59;2.80;;;1.37;;
19535;SDS011;9913;51.168;4.124;2023-04-25T13:50:28;3.67;;;1.40;;
19535;SDS011;9913;51.168;4.124;2023-04-25T13:52:56;5.07;;;1.40;;
19535;SDS011;9913;51.168;4.124;2023-04-25T13:55:25;4.47;;;1.43;;
19535;SDS011;9913;51.168;4.124;2023-04-25T13:57:55;4.47;;;1.30;;
19535;SDS011;9913;51.168;4.124;2023-04-25T14:00:23;3.57;;;1.20;;
19535;SDS011;9913;51.168;4.124;2023-04-25T14:02:51;2.80;;;1.40;;
19535;SDS011;9913;51.168;4.124;2023-04-25T14:05:20;4.57;;;1.40;;
19535;SDS011;9913;51.168;4.124;2023-04-25T14:07:48;7.13;;;1.83;;
19535;SDS011;9913;51.168;4.124;2023-04-25T14:10:16;5.33;;;1.47;;
19535;SDS011;9913;51.168;4.124;2023-04-25T14:12:45;3.73;;;1.30;;
19535;SDS011;9913;51.168;4.124;2023-04-25T14:15:15;7.23;;;1.53;;
19535;SDS011;9913;51.168;4.124;2023-04-25T14:17:43;4.07;;;1.40;;
19535;SDS011;9913;51.168;4.124;2023-04-25T14:20:12;4.50;;;1.30;;
19535;SDS011;9913;51.168;4.124;2023-04-25T14:22:40;4.53;;;1.50;;
19535;SDS011;9913;51.168;4.124;2023-04-25T14:25:10;5.97;;;1.80;;
19535;SDS011;9913;51.168;4.124;2023-04-25T14:27:38;4.27;;;1.63;;
19535;SDS011;9913;51.168;4.124;2023-04-25T14:30:07;2.90;;;0.90;;
19535;SDS011;9913;51.168;4.124;2023-04-25T14:32:39;6.10;;;1.93;;
19535;SDS011;9913;51.168;4.124;2023-04-25T14:35:08;5.40;;;1.13;;
19535;SDS011;9913;51.168;4.124;2023-04-25T14:37:36;4.90;;;1.23;;
19535;SDS011;9913;51.168;4.124;2023-04-25T14:40:06;5.93;;;1.47;;
19535;SDS011;9913;51.168;4.124;2023-04-25T14:42:37;5.47;;;1.50;;
19535;SDS011;9913;51.168;4.124;2023-04-25T14:45:05;2.77;;;0.90;;
19535;SDS011;9913;51.168;4.124;2023-04-25T14:47:35;5.80;;;1.50;;
19535;SDS011;9913;51.168;4.124;2023-04-25T14:50:06;3.80;;;1.10;;
19535;SDS011;9913;51.168;4.124;2023-04-25T14:52:35;4.67;;;1.33;;
19535;SDS011;9913;51.168;4.124;2023-04-25T14:55:04;3.07;;;1.20;;
19535;SDS011;9913;51.168;4.124;2023-04-25T14:57:34;3.47;;;1.58;;
19535;SDS011;9913;51.168;4.124;2023-04-25T15:00:02;3.27;;;1.60;;
19535;SDS011;9913;51.168;4.124;2023-04-25T15:02:35;6.40;;;1.50;;
19535;SDS011;9913;51.168;4.124;2023-04-25T15:05:04;7.13;;;1.67;;
19535;SDS011;9913;51.168;4.124;2023-04-25T15:07:35;7.40;;;2.37;;
19535;SDS011;9913;51.168;4.124;2023-04-25T15:10:03;9.67;;;3.03;;
19535;SDS011;9913;51.168;4.124;2023-04-25T15:12:32;5.63;;;2.10;;
19535;SDS011;9913;51.168;4.124;2023-04-25T15:15:01;5.47;;;2.10;;
19535;SDS011;9913;51.168;4.124;2023-04-25T15:17:29;5.83;;;1.90;;
19535;SDS011;9913;51.168;4.124;2023-04-25T15:19:58;4.93;;;1.57;;
19535;SDS011;9913;51.168;4.124;2023-04-25T15:22:28;4.22;;;1.83;;
19535;SDS011;9913;51.168;4.124;2023-04-25T15:24:56;5.43;;;1.80;;